createdAt,value
2023-01-06T00:02:46.991Z,100274.28
2023-01-06T00:07:52.788Z,100292.00
2023-01-06T00:12:55.497Z,100276.06
2023-01-06T00:17:57.106Z,100277.75
2023-01-06T00:22:58.730Z,100261.03
2023-01-06T00:28:00.331Z,100273.13
2023-01-06T00:33:01.921Z,100259.50
2023-01-06T00:38:03.952Z,100271.28
2023-01-06T00:43:05.719Z,100273.13
2023-01-06T00:48:07.802Z,100264.97
2023-01-06T00:53:09.431Z,100264.41
2023-01-06T00:58:11.048Z,100264.84
2023-01-06T01:03:13.963Z,100261.31
2023-01-06T01:08:15.851Z,100251.03
2023-01-06T01:13:17.466Z,100256.63
2023-01-06T01:18:19.131Z,100269.44
2023-01-06T01:23:20.737Z,100259.28
2023-01-06T01:28:22.431Z,100252.69
2023-01-06T01:33:24.070Z,100254.03
2023-01-06T01:38:26.649Z,100245.38
2023-01-06T01:43:50.061Z,100253.31
2023-01-06T01:48:53.128Z,100247.16
2023-01-06T01:53:58.898Z,100249.28
2023-01-06T01:59:09.409Z,100246.09
2023-01-06T02:04:11.348Z,100230.97
2023-01-06T02:09:20.941Z,100230.72
2023-01-06T02:14:24.656Z,100228.84
2023-01-06T02:20:03.944Z,100224.66
2023-01-06T02:25:12.311Z,100214.06
2023-01-06T02:30:51.149Z,100206.47
2023-01-06T02:36:40.789Z,100204.88
2023-01-06T02:41:53.623Z,100191.81
2023-01-06T02:47:01.235Z,100193.03
2023-01-06T02:52:25.524Z,100180.84
2023-01-06T02:57:38.985Z,100175.94
2023-01-06T03:02:45.632Z,100178.50
2023-01-06T03:07:48.357Z,100159.06
2023-01-06T03:13:01.938Z,100150.50
2023-01-06T03:18:05.251Z,100155.59
2023-01-06T03:23:07.143Z,100143.22
2023-01-06T03:28:09.070Z,100144.59
2023-01-06T03:33:34.335Z,100141.50
2023-01-06T03:38:50.507Z,100136.97
2023-01-06T03:44:02.904Z,100134.50
2023-01-06T03:49:09.514Z,100120.41
2023-01-06T03:54:26.900Z,100115.91
2023-01-06T03:59:34.916Z,100122.25
2023-01-06T04:04:38.120Z,100118.03
2023-01-06T04:09:39.820Z,100111.13
2023-01-06T04:14:42.855Z,100111.13
2023-01-06T04:19:44.538Z,100106.50
2023-01-06T04:24:46.453Z,100105.78
2023-01-06T04:29:48.420Z,100094.66
2023-01-06T04:34:50.284Z,100083.94
2023-01-06T04:39:52.803Z,100074.94
2023-01-06T04:44:54.411Z,100075.53
2023-01-06T04:49:56.005Z,100071.28
2023-01-06T04:54:57.617Z,100078.88
2023-01-06T04:59:59.217Z,100069.59
2023-01-06T05:05:00.831Z,100063.00
2023-01-06T05:10:02.807Z,100057.75
2023-01-06T05:15:05.326Z,100059.44
2023-01-06T05:20:07.743Z,100054.34
2023-01-06T05:25:09.450Z,100060.06
2023-01-06T05:30:12.041Z,100058.31
2023-01-06T05:35:13.710Z,100054.53
2023-01-06T05:40:15.320Z,100043.50
2023-01-06T05:45:17.110Z,100041.97
2023-01-06T05:50:19.269Z,100029.94
2023-01-06T05:55:20.866Z,100028.94
2023-01-06T06:00:22.598Z,100030.25
2023-01-06T06:05:24.248Z,100020.31
2023-01-06T06:10:25.878Z,100026.25
2023-01-06T06:15:27.533Z,100030.03
2023-01-06T06:20:29.262Z,100021.84
2023-01-06T06:25:31.108Z,100025.31
2023-01-06T06:30:32.719Z,100033.03
2023-01-06T06:35:34.314Z,100023.44
2023-01-06T06:40:35.919Z,100020.28
2023-01-06T06:45:37.546Z,100016.66
2023-01-06T06:50:39.592Z,100001.31
2023-01-06T06:55:41.223Z,100002.38
2023-01-06T07:00:42.864Z,99998.53
2023-01-06T07:05:46.255Z,100004.22
2023-01-06T07:10:47.931Z,100008.16
2023-01-06T07:15:49.683Z,100001.72
2023-01-06T07:20:53.735Z,100003.22
2023-01-06T07:25:57.512Z,99996.75
2023-01-06T07:30:59.586Z,99997.19
2023-01-06T07:36:01.210Z,99975.47
2023-01-06T07:41:02.843Z,99969.56
2023-01-06T07:46:04.700Z,99970.50
2023-01-06T07:51:07.132Z,99976.78
2023-01-06T07:56:09.080Z,99968.88
2023-01-06T08:01:11.750Z,99974.78
2023-01-06T08:06:13.598Z,99970.25
2023-01-06T08:11:15.265Z,99960.34
2023-01-06T08:16:16.939Z,99961.06
2023-01-06T08:21:18.587Z,99962.94
2023-01-06T08:26:20.271Z,99969.75
2023-01-06T08:31:23.285Z,99953.13
2023-01-06T08:36:25.712Z,99949.78
2023-01-06T08:41:27.391Z,99945.34
2023-01-06T08:46:29.135Z,99944.69
2023-01-06T08:51:31.405Z,99962.53
2023-01-06T08:56:33.976Z,99967.09
2023-01-06T09:01:37.247Z,99966.06
2023-01-06T09:06:39.948Z,99980.22
2023-01-06T09:11:43.353Z,99982.59
2023-01-06T09:16:45.063Z,99972.69
2023-01-06T09:21:46.688Z,99985.47
2023-01-06T09:26:48.370Z,99982.91
2023-01-06T09:31:50.051Z,99997.22
2023-01-06T09:36:51.703Z,99978.38
2023-01-06T09:42:30.562Z,99959.41
2023-01-06T09:47:55.966Z,99955.03
2023-01-06T09:53:24.121Z,99956.09
2023-01-06T09:58:34.513Z,99940.44
2023-01-06T10:03:36.358Z,99951.75
2023-01-06T10:09:05.827Z,99937.19
2023-01-06T10:14:25.860Z,99920.66
2023-01-06T10:19:44.971Z,99915.53
2023-01-06T10:24:59.095Z,99919.16
2023-01-06T10:30:03.276Z,99910.13
2023-01-06T10:35:12.931Z,99905.34
2023-01-06T10:40:30.455Z,99902.06
2023-01-06T10:45:48.097Z,99898.22
2023-01-06T10:50:49.755Z,99892.81
2023-01-06T10:55:56.882Z,99890.25
2023-01-06T11:01:01.810Z,99878.06
2023-01-06T11:06:08.898Z,99874.00
2023-01-06T11:11:34.190Z,99869.41
2023-01-06T11:16:36.941Z,99876.59
2023-01-06T11:21:44.439Z,99862.22
2023-01-06T11:26:58.909Z,99870.31
2023-01-06T11:32:22.102Z,99864.13
2023-01-06T11:37:36.030Z,99851.09
2023-01-06T11:42:39.469Z,99871.69
2023-01-06T11:47:41.108Z,99853.00
2023-01-06T11:52:42.873Z,99856.50
2023-01-06T11:57:55.164Z,99858.69
2023-01-06T12:03:12.231Z,99863.78
2023-01-06T12:08:40.830Z,99861.81
2023-01-06T12:13:45.042Z,99866.41
2023-01-06T12:18:58.015Z,99871.13
2023-01-06T12:24:04.249Z,99875.16
2023-01-06T12:29:07.554Z,99877.56
2023-01-06T12:34:29.471Z,99869.88
2023-01-06T12:39:42.873Z,99877.38
2023-01-06T12:44:59.641Z,99891.94
2023-01-06T12:50:08.268Z,99908.28
2023-01-06T12:55:15.764Z,99900.91
2023-01-06T13:00:28.554Z,99889.66
2023-01-06T13:05:48.062Z,99884.75
2023-01-06T13:10:55.038Z,99899.84
2023-01-06T13:16:02.769Z,99883.69
2023-01-06T13:21:18.303Z,99878.28
2023-01-06T13:26:38.579Z,99870.88
2023-01-06T13:32:00.151Z,99869.81
2023-01-06T13:37:36.939Z,99874.44
2023-01-06T13:42:44.021Z,99873.78
2023-01-06T13:47:47.180Z,99876.25
2023-01-06T13:52:50.064Z,99873.13
2023-01-06T13:57:51.935Z,99873.03
2023-01-06T14:02:53.519Z,99875.00
2023-01-06T14:07:59.776Z,99869.53
2023-01-06T14:13:04.037Z,99880.84
2023-01-06T14:18:05.757Z,99880.84
2023-01-06T14:23:22.652Z,99892.78
2023-01-06T14:28:31.194Z,99893.13
2023-01-06T14:33:37.872Z,99896.13
2023-01-06T14:38:48.629Z,99917.00
2023-01-06T14:44:02.976Z,99908.59
2023-01-06T14:49:07.282Z,99913.97
2023-01-06T14:54:33.540Z,99917.34
2023-01-06T14:59:35.210Z,99909.28
2023-01-06T15:04:36.866Z,99912.78
2023-01-06T15:09:38.495Z,99920.53
2023-01-06T15:14:40.092Z,99919.66
2023-01-06T15:19:43.969Z,99927.59
2023-01-06T15:24:46.242Z,99923.59
2023-01-06T15:29:56.543Z,99934.81
2023-01-06T15:34:59.542Z,99942.72
2023-01-06T15:40:02.036Z,99941.06
2023-01-06T15:45:06.183Z,99951.13
2023-01-06T15:50:18.522Z,99951.28
2023-01-06T15:55:25.124Z,99955.66
2023-01-06T16:00:31.258Z,99962.72
2023-01-06T16:05:43.233Z,99955.34
2023-01-06T16:10:46.168Z,99960.03
2023-01-06T16:15:49.554Z,99969.66
2023-01-06T16:20:51.227Z,99980.06
2023-01-06T16:26:05.986Z,99978.72
2023-01-06T16:31:13.531Z,99982.94
2023-01-06T16:36:17.056Z,99985.31
2023-01-06T16:41:19.484Z,99989.69
2023-01-06T16:46:27.016Z,99990.84
2023-01-06T16:51:29.189Z,99992.16
2023-01-06T16:56:30.844Z,99982.09
2023-01-06T17:01:32.602Z,99984.97
2023-01-06T17:06:34.271Z,99990.84
2023-01-06T17:11:38.214Z,100000.25
2023-01-06T17:16:41.510Z,99997.22
2023-01-06T17:21:43.121Z,100006.28
2023-01-06T17:26:51.469Z,100004.91
2023-01-06T17:31:57.112Z,100013.16
2023-01-06T17:37:02.965Z,100011.31
2023-01-06T17:42:07.313Z,100021.19
2023-01-06T17:47:22.871Z,100014.94
2023-01-06T17:52:35.583Z,100025.97
2023-01-06T17:57:40.494Z,100029.28
2023-01-06T18:02:46.739Z,100028.22
2023-01-06T18:07:48.332Z,100032.75
2023-01-06T18:12:49.986Z,100036.47
2023-01-06T18:17:51.671Z,100040.00
2023-01-06T18:22:53.294Z,100040.66
2023-01-06T18:27:54.939Z,100048.22
2023-01-06T18:32:56.613Z,100069.06
2023-01-06T18:38:03.296Z,100068.25
2023-01-06T18:43:38.149Z,100070.41
2023-01-06T18:48:39.817Z,100069.72
2023-01-06T18:53:43.621Z,100079.97
2023-01-06T18:58:49.027Z,100068.97
2023-01-06T19:04:14.527Z,100060.06
2023-01-06T19:09:36.044Z,100075.28
2023-01-06T19:14:43.996Z,100087.63
2023-01-06T19:19:45.799Z,100078.81
2023-01-06T19:25:00.655Z,100087.91
2023-01-06T19:30:42.941Z,100089.56
2023-01-06T19:35:45.214Z,100091.34
2023-01-06T19:40:46.875Z,100087.56
2023-01-06T19:45:48.759Z,100096.78
2023-01-06T19:51:00.821Z,100104.31
2023-01-06T19:56:16.498Z,100103.41
2023-01-06T20:01:18.292Z,100098.72
2023-01-06T20:06:20.544Z,100110.09
2023-01-06T20:11:23.414Z,100108.28
2023-01-06T20:16:25.090Z,100119.81
2023-01-06T20:21:26.697Z,100132.31
2023-01-06T20:26:28.293Z,100128.41
2023-01-06T20:31:30.385Z,100132.91
2023-01-06T20:36:32.152Z,100134.69
2023-01-06T20:41:33.759Z,100126.78
2023-01-06T20:46:35.360Z,100134.91
2023-01-06T20:51:37.009Z,100135.69
2023-01-06T20:56:38.752Z,100140.75
2023-01-06T21:01:40.457Z,100148.28
2023-01-06T21:06:42.137Z,100147.66
2023-01-06T21:11:43.751Z,100149.16
2023-01-06T21:16:46.484Z,100145.41
2023-01-06T21:21:48.545Z,100156.47
2023-01-06T21:26:50.131Z,100142.50
2023-01-06T21:31:51.783Z,100152.09
2023-01-06T21:36:53.402Z,100157.22
2023-01-06T21:42:13.741Z,100163.13
2023-01-06T21:47:15.589Z,100140.53
2023-01-06T21:52:17.714Z,100146.47
2023-01-06T21:57:19.362Z,100147.72
2023-01-06T22:02:21.292Z,100142.97
2023-01-06T22:07:23.488Z,100145.56
2023-01-06T22:12:25.142Z,100145.78
2023-01-06T22:17:26.981Z,100157.38
2023-01-06T22:22:30.324Z,100155.59
2023-01-06T22:27:31.947Z,100156.06
2023-01-06T22:32:45.073Z,100156.06
2023-01-06T22:37:46.730Z,100160.59
2023-01-06T22:42:48.374Z,100164.66
2023-01-06T22:47:49.999Z,100155.94
2023-01-06T22:52:51.665Z,100166.41
2023-01-06T22:57:53.296Z,100162.97
2023-01-06T23:02:55.013Z,100165.75
2023-01-06T23:07:56.639Z,100171.78
2023-01-06T23:12:58.278Z,100168.50
2023-01-06T23:17:59.908Z,100160.38
2023-01-06T23:23:01.508Z,100165.09
2023-01-06T23:28:03.166Z,100160.84
2023-01-06T23:33:04.761Z,100148.72
2023-01-06T23:38:06.365Z,100148.78
2023-01-06T23:43:07.994Z,100148.41
2023-01-06T23:48:09.638Z,100158.22
2023-01-06T23:53:11.243Z,100145.41
2023-01-06T23:58:12.957Z,100141.66
